Pagrindinis puslapis
METAR-TAF:

METAR-TAF

Oro uostai :

Hiustonas, Teksasas, Jungtinės Amerikos Valstijos

platuma: 29-48-18N, ilguma: 095-53-52W, Aukštis: 51 m

Dabartinis oras

Ataskaita buvo paskelbta 11 minutes, ne 21:35 UTC
Vėjas 17 kt iš Pietų
Temperatūra 30°C
Drėgmė 59%
Slėgis 1013 hPa
Matomumas: 14.5 km
Su prošvaistėmis ne aukštis 3400 ft
Su prošvaistėmis ne aukštis 4100 ft

METAR: KTME 082135Z AUTO 17017KT 9SM BKN034 BKN041 30/21 A2990 RMK AO2

Laikas: 15:46 (21:46 UTC)


TAF: trūkstamas

Orai ataskaitas ir orų prognozės (METAR, TAF).

turimą stotys yra geltonos ir raudonos taškus žemėlapyje.

Perkelti pele per norėdami pamatyti stoties vardą.

Tada spustelėkite, norėdami matyti oro stebėjimo ir prognozės.

Norėdami pakeisti žemėlapį: spustelėkite ant žalios mygtukų su juodo kryžiaus žemyn,; žalią mygtuką su brūkšneliu, jei norite nutolinti; arba žalių rodyklių gretimoms žemėlapius.


METAR-TAF: